PWSweather.com
Personal Weather Stations
Station Observations
KMAMEDFI2
Medfield, MA 02052

Medfield, MA 02052

Lat: 42.1900822, Lon: -71.3296889

Elevation: 138

Station Type: Rainwise WS MK-III

http://www.medfieldweather.com

High Low Average
Temperature 73.9°F23.3°C 63.4°F17.4°C 67.3°F19.6°C
Dew Point 65.9°F18.8°C 59.5°F15.3°C 62.1°F16.7°C
Winds 15.0 mph 24.1 kmh 2.3 mph 3.7 kmh 6.0 mph S9.7 kmh S
Wind Gusts 32.2 mph51.8 kmh 2.3 mph3.7 kmh 11.0 mph17.7 kmh
Humidity 99% 64% 84%
Pressure 29.95 in1014.2 mb 29.87 in1011.5 mb -
Precipitation 0.08 in2.0 mm - -
Hour Temp Dew Point Humidity Winds Wind Gusts Pressure Precip Precip Rate Daily Precip Total
12:00 AM 63.4°F17.4°C 61.6°F16.4°C 94% 9.2 mph SSW14.8 kmh SSW 23.0 mph37.0 kmh 29.95 in1014.2 mb - 0.00 in0.0 mm 0.00 in0.0 mm
12:10 AM 63.8°F17.7°C 61.7°F16.5°C 93% 5.8 mph SW9.3 kmh SW 5.8 mph9.3 kmh 29.95 in1014.2 mb - 0.00 in0.0 mm 0.00 in0.0 mm
12:20 AM 64.0°F17.8°C 61.6°F16.4°C 92% 5.8 mph SW9.3 kmh SW 17.3 mph27.8 kmh 29.95 in1014.2 mb - 0.00 in0.0 mm 0.00 in0.0 mm
12:30 AM 64.3°F17.9°C 61.6°F16.4°C 91% 6.9 mph SSE11.1 kmh SSE 9.2 mph14.8 kmh 29.95 in1014.2 mb - 0.00 in0.0 mm 0.00 in0.0 mm
12:40 AM 64.4°F18.0°C 61.4°F16.3°C 90% 6.9 mph SW11.1 kmh SW 5.8 mph9.3 kmh 29.94 in1013.9 mb - 0.00 in0.0 mm 0.00 in0.0 mm
12:50 AM 64.6°F18.1°C 61.3°F16.3°C 89% 5.8 mph WSW9.3 kmh WSW 15.0 mph24.1 kmh 29.94 in1013.9 mb - 0.00 in0.0 mm 0.00 in0.0 mm
01:00 AM 64.6°F18.1°C 61.0°F16.1°C 88% 4.6 mph S7.4 kmh S 8.1 mph13.0 kmh 29.94 in1013.9 mb - 0.00 in0.0 mm 0.00 in0.0 mm
01:10 AM 64.6°F18.1°C 61.0°F16.1°C 88% 6.9 mph SW11.1 kmh SW 9.2 mph14.8 kmh 29.93 in1013.5 mb - 0.00 in0.0 mm 0.00 in0.0 mm
01:20 AM 64.7°F18.2°C 61.0°F16.1°C 88% 8.1 mph SW13.0 kmh SW 15.0 mph24.1 kmh 29.93 in1013.5 mb - 0.00 in0.0 mm 0.00 in0.0 mm
01:30 AM 64.6°F18.1°C 60.9°F16.1°C 88% 5.8 mph SSW9.3 kmh SSW 15.0 mph24.1 kmh 29.93 in1013.5 mb - 0.00 in0.0 mm 0.00 in0.0 mm
01:40 AM 64.5°F18.1°C 60.9°F16.1°C 88% 5.8 mph SSE9.3 kmh SSE 8.1 mph13.0 kmh 29.92 in1013.2 mb - 0.00 in0.0 mm 0.00 in0.0 mm
01:50 AM 64.4°F18.0°C 60.7°F15.9°C 88% 6.9 mph SSW11.1 kmh SSW 15.0 mph24.1 kmh 29.92 in1013.2 mb - 0.00 in0.0 mm 0.00 in0.0 mm
02:00 AM 64.4°F18.0°C 60.5°F15.8°C 87% 9.2 mph WSW14.8 kmh WSW 16.1 mph25.9 kmh 29.91 in1012.9 mb - 0.00 in0.0 mm 0.00 in0.0 mm
02:10 AM 64.2°F17.9°C 60.3°F15.7°C 87% 8.1 mph SSE13.0 kmh SSE 16.1 mph25.9 kmh 29.91 in1012.9 mb - 0.00 in0.0 mm 0.00 in0.0 mm
02:20 AM 64.1°F17.8°C 60.2°F15.7°C 87% 4.6 mph SSW7.4 kmh SSW 8.1 mph13.0 kmh 29.91 in1012.9 mb - 0.00 in0.0 mm 0.00 in0.0 mm
02:30 AM 63.9°F17.7°C 60.3°F15.7°C 88% 6.9 mph NNE11.1 kmh NNE 9.2 mph14.8 kmh 29.91 in1012.9 mb - 0.00 in0.0 mm 0.00 in0.0 mm
02:40 AM 64.0°F17.8°C 60.3°F15.7°C 88% 5.8 mph SSE9.3 kmh SSE 16.1 mph25.9 kmh 29.90 in1012.5 mb - 0.00 in0.0 mm 0.00 in0.0 mm
02:50 AM 63.9°F17.7°C 60.3°F15.7°C 88% 4.6 mph SSW7.4 kmh SSW 10.4 mph16.7 kmh 29.90 in1012.5 mb - 0.00 in0.0 mm 0.00 in0.0 mm
03:00 AM 63.9°F17.7°C 60.3°F15.7°C 88% 4.6 mph S7.4 kmh S 6.9 mph11.1 kmh 29.89 in1012.2 mb - 0.00 in0.0 mm 0.00 in0.0 mm
03:10 AM 64.1°F17.8°C 60.2°F15.7°C 87% 6.9 mph SW11.1 kmh SW 9.2 mph14.8 kmh 29.90 in1012.5 mb - 0.00 in0.0 mm 0.00 in0.0 mm
03:20 AM 64.2°F17.9°C 60.3°F15.7°C 87% 6.9 mph SSE11.1 kmh SSE 9.2 mph14.8 kmh 29.89 in1012.2 mb - 0.00 in0.0 mm 0.00 in0.0 mm
03:30 AM 64.2°F17.9°C 60.3°F15.7°C 87% 3.5 mph SSW5.6 kmh SSW 11.5 mph18.5 kmh 29.90 in1012.5 mb - 0.00 in0.0 mm 0.00 in0.0 mm
03:40 AM 64.4°F18.0°C 60.5°F15.8°C 87% 8.1 mph W13.0 kmh W 11.5 mph18.5 kmh 29.90 in1012.5 mb - 0.00 in0.0 mm 0.00 in0.0 mm
03:50 AM 64.5°F18.1°C 60.2°F15.7°C 86% 6.9 mph S11.1 kmh S 11.5 mph18.5 kmh 29.90 in1012.5 mb - 0.00 in0.0 mm 0.00 in0.0 mm
04:00 AM 64.5°F18.1°C 60.3°F15.7°C 86% 15.0 mph SW24.1 kmh SW 16.1 mph25.9 kmh 29.89 in1012.2 mb - 0.01 in0.3 mm 0.01 in0.3 mm
04:10 AM 64.6°F18.1°C 60.3°F15.7°C 86% 5.8 mph S9.3 kmh S 8.1 mph13.0 kmh 29.90 in1012.5 mb - 0.01 in0.3 mm 0.01 in0.3 mm
04:20 AM 64.6°F18.1°C 60.4°F15.8°C 86% 6.9 mph SW11.1 kmh SW 15.0 mph24.1 kmh 29.90 in1012.5 mb - 0.01 in0.3 mm 0.01 in0.3 mm
04:30 AM 64.6°F18.1°C 60.3°F15.7°C 86% 4.6 mph SE7.4 kmh SE 8.1 mph13.0 kmh 29.90 in1012.5 mb - 0.01 in0.3 mm 0.01 in0.3 mm
04:40 AM 64.6°F18.1°C 60.0°F15.6°C 85% 9.2 mph SW14.8 kmh SW 23.0 mph37.0 kmh 29.90 in1012.5 mb - 0.01 in0.3 mm 0.01 in0.3 mm
04:50 AM 64.4°F18.0°C 60.1°F15.6°C 86% 9.2 mph S14.8 kmh S 15.0 mph24.1 kmh 29.90 in1012.5 mb - 0.01 in0.3 mm 0.01 in0.3 mm
05:00 AM 64.2°F17.9°C 59.9°F15.5°C 86% 10.4 mph S16.7 kmh S 16.1 mph25.9 kmh 29.90 in1012.5 mb - 0.00 in0.0 mm 0.01 in0.3 mm
05:10 AM 64.2°F17.9°C 59.6°F15.3°C 85% 8.1 mph SSW13.0 kmh SSW 10.4 mph16.7 kmh 29.90 in1012.5 mb - 0.00 in0.0 mm 0.01 in0.3 mm
05:20 AM 64.1°F17.8°C 59.8°F15.4°C 86% 5.8 mph SSE9.3 kmh SSE 5.8 mph9.3 kmh 29.90 in1012.5 mb - 0.00 in0.0 mm 0.01 in0.3 mm
05:30 AM 64.1°F17.8°C 59.8°F15.4°C 86% 5.8 mph SSW9.3 kmh SSW 11.5 mph18.5 kmh 29.90 in1012.5 mb - 0.00 in0.0 mm 0.01 in0.3 mm
05:40 AM 63.9°F17.7°C 59.6°F15.3°C 86% 3.5 mph WNW5.6 kmh WNW 5.8 mph9.3 kmh 29.90 in1012.5 mb - 0.00 in0.0 mm 0.01 in0.3 mm
05:50 AM 64.1°F17.8°C 59.5°F15.3°C 85% 10.4 mph SW16.7 kmh SW 18.4 mph29.6 kmh 29.90 in1012.5 mb - 0.00 in0.0 mm 0.01 in0.3 mm
06:00 AM 64.4°F18.0°C 59.8°F15.4°C 85% 9.2 mph SW14.8 kmh SW 9.2 mph14.8 kmh 29.90 in1012.5 mb - 0.00 in0.0 mm 0.01 in0.3 mm
06:10 AM 64.5°F18.1°C 59.9°F15.5°C 85% 9.2 mph SW14.8 kmh SW 21.9 mph35.2 kmh 29.89 in1012.2 mb - 0.00 in0.0 mm 0.01 in0.3 mm
06:20 AM 64.7°F18.2°C 60.1°F15.6°C 85% 6.9 mph SW11.1 kmh SW 6.9 mph11.1 kmh 29.89 in1012.2 mb - 0.00 in0.0 mm 0.01 in0.3 mm
06:30 AM 64.9°F18.3°C 60.0°F15.6°C 84% 10.4 mph SW16.7 kmh SW 32.2 mph51.8 kmh 29.90 in1012.5 mb - 0.00 in0.0 mm 0.01 in0.3 mm
06:40 AM 65.1°F18.4°C 60.1°F15.6°C 84% 5.8 mph W9.3 kmh W 27.6 mph44.4 kmh 29.90 in1012.5 mb - 0.00 in0.0 mm 0.01 in0.3 mm
06:50 AM 65.2°F18.4°C 60.2°F15.7°C 84% 6.9 mph SSW11.1 kmh SSW 10.4 mph16.7 kmh 29.90 in1012.5 mb - 0.00 in0.0 mm 0.01 in0.3 mm
07:00 AM 65.5°F18.6°C 60.2°F15.7°C 83% 5.8 mph SW9.3 kmh SW 9.2 mph14.8 kmh 29.91 in1012.9 mb - 0.00 in0.0 mm 0.01 in0.3 mm
07:10 AM 65.6°F18.7°C 60.6°F15.9°C 84% 5.8 mph NW9.3 kmh NW 8.1 mph13.0 kmh 29.91 in1012.9 mb - 0.00 in0.0 mm 0.01 in0.3 mm
07:20 AM 65.6°F18.7°C 60.6°F15.9°C 84% 3.5 mph WSW5.6 kmh WSW 15.0 mph24.1 kmh 29.91 in1012.9 mb - 0.00 in0.0 mm 0.01 in0.3 mm
07:30 AM 66.1°F18.9°C 61.1°F16.2°C 84% 4.6 mph S7.4 kmh S 6.9 mph11.1 kmh 29.91 in1012.9 mb - 0.00 in0.0 mm 0.01 in0.3 mm
07:40 AM 66.4°F19.1°C 61.4°F16.3°C 84% 5.8 mph SW9.3 kmh SW 9.2 mph14.8 kmh 29.91 in1012.9 mb - 0.00 in0.0 mm 0.01 in0.3 mm
07:50 AM 67.1°F19.5°C 61.0°F16.1°C 81% 10.4 mph SW16.7 kmh SW 13.8 mph22.2 kmh 29.90 in1012.5 mb - 0.00 in0.0 mm 0.01 in0.3 mm
08:00 AM 68.1°F20.1°C 61.3°F16.3°C 79% 3.5 mph SE5.6 kmh SE 5.8 mph9.3 kmh 29.90 in1012.5 mb - 0.00 in0.0 mm 0.01 in0.3 mm
08:10 AM 68.3°F20.2°C 61.6°F16.4°C 79% 11.5 mph SW18.5 kmh SW 16.1 mph25.9 kmh 29.89 in1012.2 mb - 0.00 in0.0 mm 0.01 in0.3 mm
08:20 AM 68.0°F20.0°C 61.2°F16.2°C 79% 12.7 mph S20.4 kmh S 16.1 mph25.9 kmh 29.90 in1012.5 mb - 0.00 in0.0 mm 0.01 in0.3 mm
08:30 AM 68.3°F20.2°C 61.2°F16.2°C 78% 8.1 mph SSW13.0 kmh SSW 13.8 mph22.2 kmh 29.90 in1012.5 mb - 0.00 in0.0 mm 0.01 in0.3 mm
08:40 AM 68.9°F20.5°C 61.4°F16.3°C 77% 2.3 mph S3.7 kmh S 8.1 mph13.0 kmh 29.90 in1012.5 mb - 0.00 in0.0 mm 0.01 in0.3 mm
08:50 AM 68.7°F20.4°C 61.2°F16.2°C 77% 8.1 mph S13.0 kmh S 16.1 mph25.9 kmh 29.90 in1012.5 mb - 0.00 in0.0 mm 0.01 in0.3 mm
09:00 AM 68.6°F20.3°C 61.5°F16.4°C 78% 6.9 mph SW11.1 kmh SW 16.1 mph25.9 kmh 29.91 in1012.9 mb - 0.00 in0.0 mm 0.01 in0.3 mm
09:10 AM 69.3°F20.7°C 61.7°F16.5°C 77% 5.8 mph SSW9.3 kmh SSW 11.5 mph18.5 kmh 29.90 in1012.5 mb - 0.00 in0.0 mm 0.01 in0.3 mm
09:20 AM 70.0°F21.1°C 61.4°F16.3°C 74% 4.6 mph S7.4 kmh S 5.8 mph9.3 kmh 29.91 in1012.9 mb - 0.00 in0.0 mm 0.01 in0.3 mm
09:30 AM 69.6°F20.9°C 61.3°F16.3°C 75% 6.9 mph S11.1 kmh S 17.3 mph27.8 kmh 29.91 in1012.9 mb - 0.00 in0.0 mm 0.01 in0.3 mm
09:40 AM 70.4°F21.3°C 62.1°F16.7°C 75% 9.2 mph SSW14.8 kmh SSW 8.1 mph13.0 kmh 29.92 in1013.2 mb - 0.00 in0.0 mm 0.01 in0.3 mm
09:50 AM 70.7°F21.5°C 61.6°F16.4°C 73% 8.1 mph WSW13.0 kmh WSW 10.4 mph16.7 kmh 29.91 in1012.9 mb - 0.00 in0.0 mm 0.01 in0.3 mm
10:00 AM 71.3°F21.8°C 61.8°F16.6°C 72% 5.8 mph SE9.3 kmh SE 15.0 mph24.1 kmh 29.92 in1013.2 mb - 0.00 in0.0 mm 0.01 in0.3 mm
10:10 AM 70.7°F21.5°C 62.0°F16.7°C 74% 6.9 mph S11.1 kmh S 11.5 mph18.5 kmh 29.92 in1013.2 mb - 0.00 in0.0 mm 0.01 in0.3 mm
10:20 AM 71.0°F21.7°C 62.3°F16.8°C 74% 4.6 mph WSW7.4 kmh WSW 10.4 mph16.7 kmh 29.92 in1013.2 mb - 0.00 in0.0 mm 0.01 in0.3 mm
10:30 AM 70.7°F21.5°C 61.7°F16.5°C 73% 6.9 mph SSE11.1 kmh SSE 11.5 mph18.5 kmh 29.92 in1013.2 mb - 0.00 in0.0 mm 0.01 in0.3 mm
10:40 AM 70.1°F21.2°C 61.8°F16.6°C 75% 4.6 mph SSE7.4 kmh SSE 8.1 mph13.0 kmh 29.92 in1013.2 mb - 0.00 in0.0 mm 0.01 in0.3 mm
10:50 AM 70.2°F21.2°C 61.9°F16.6°C 75% 4.6 mph SW7.4 kmh SW 8.1 mph13.0 kmh 29.92 in1013.2 mb - 0.00 in0.0 mm 0.01 in0.3 mm
11:00 AM 70.3°F21.3°C 62.0°F16.7°C 75% 5.8 mph S9.3 kmh S 8.1 mph13.0 kmh 29.92 in1013.2 mb - 0.00 in0.0 mm 0.01 in0.3 mm
11:10 AM 69.5°F20.8°C 62.4°F16.9°C 78% 4.6 mph WSW7.4 kmh WSW 6.9 mph11.1 kmh 29.92 in1013.2 mb - 0.00 in0.0 mm 0.01 in0.3 mm
11:20 AM 68.9°F20.5°C 62.5°F16.9°C 80% 4.6 mph ESE7.4 kmh ESE 6.9 mph11.1 kmh 29.92 in1013.2 mb - 0.00 in0.0 mm 0.01 in0.3 mm
11:30 AM 69.2°F20.7°C 62.4°F16.9°C 79% 9.2 mph SSW14.8 kmh SSW 11.5 mph18.5 kmh 29.91 in1012.9 mb - 0.00 in0.0 mm 0.01 in0.3 mm
11:40 AM 69.2°F20.7°C 62.4°F16.9°C 79% 9.2 mph S14.8 kmh S 16.1 mph25.9 kmh 29.91 in1012.9 mb - 0.00 in0.0 mm 0.01 in0.3 mm
11:50 AM 69.2°F20.7°C 62.8°F17.1°C 80% 6.9 mph S11.1 kmh S 15.0 mph24.1 kmh 29.90 in1012.5 mb - 0.00 in0.0 mm 0.01 in0.3 mm
12:00 PM 69.9°F21.1°C 62.7°F17.1°C 78% 6.9 mph SW11.1 kmh SW 15.0 mph24.1 kmh 29.90 in1012.5 mb - 0.00 in0.0 mm 0.01 in0.3 mm
12:10 PM 70.3°F21.3°C 62.4°F16.9°C 76% 5.8 mph S9.3 kmh S 10.4 mph16.7 kmh 29.90 in1012.5 mb - 0.00 in0.0 mm 0.01 in0.3 mm
12:20 PM 70.1°F21.2°C 62.2°F16.8°C 76% 3.5 mph WSW5.6 kmh WSW 9.2 mph14.8 kmh 29.90 in1012.5 mb - 0.00 in0.0 mm 0.01 in0.3 mm
12:30 PM 69.9°F21.1°C 61.6°F16.4°C 75% 6.9 mph S11.1 kmh S 8.1 mph13.0 kmh 29.90 in1012.5 mb - 0.00 in0.0 mm 0.01 in0.3 mm
12:40 PM 70.2°F21.2°C 61.9°F16.6°C 75% 4.6 mph S7.4 kmh S 10.4 mph16.7 kmh 29.90 in1012.5 mb - 0.00 in0.0 mm 0.01 in0.3 mm
12:50 PM 71.2°F21.8°C 61.7°F16.5°C 72% 6.9 mph S11.1 kmh S 16.1 mph25.9 kmh 29.89 in1012.2 mb - 0.00 in0.0 mm 0.01 in0.3 mm
01:00 PM 71.2°F21.8°C 61.7°F16.5°C 72% 10.4 mph SSE16.7 kmh SSE 16.1 mph25.9 kmh 29.89 in1012.2 mb - 0.00 in0.0 mm 0.01 in0.3 mm
01:10 PM 71.2°F21.8°C 61.7°F16.5°C 72% 12.7 mph SSE20.4 kmh SSE 16.1 mph25.9 kmh 29.89 in1012.2 mb - 0.00 in0.0 mm 0.01 in0.3 mm
01:20 PM 71.7°F22.1°C 62.1°F16.7°C 72% 8.1 mph WSW13.0 kmh WSW 11.5 mph18.5 kmh 29.89 in1012.2 mb - 0.00 in0.0 mm 0.01 in0.3 mm
01:30 PM 72.6°F22.6°C 61.8°F16.6°C 69% 5.8 mph E9.3 kmh E 9.2 mph14.8 kmh 29.88 in1011.9 mb - 0.00 in0.0 mm 0.01 in0.3 mm
01:40 PM 72.5°F22.5°C 61.3°F16.3°C 68% 6.9 mph SSE11.1 kmh SSE 8.1 mph13.0 kmh 29.88 in1011.9 mb - 0.00 in0.0 mm 0.01 in0.3 mm
01:50 PM 72.3°F22.4°C 61.6°F16.4°C 69% 5.8 mph NW9.3 kmh NW 11.5 mph18.5 kmh 29.89 in1012.2 mb - 0.00 in0.0 mm 0.01 in0.3 mm
02:00 PM 72.3°F22.4°C 61.6°F16.4°C 69% 6.9 mph SSE11.1 kmh SSE 9.2 mph14.8 kmh 29.89 in1012.2 mb - 0.00 in0.0 mm 0.01 in0.3 mm
02:10 PM 72.5°F22.5°C 61.3°F16.3°C 68% 5.8 mph SW9.3 kmh SW 11.5 mph18.5 kmh 29.89 in1012.2 mb - 0.00 in0.0 mm 0.01 in0.3 mm
02:20 PM 73.6°F23.1°C 61.1°F16.2°C 65% 8.1 mph SW13.0 kmh SW 24.2 mph38.9 kmh 29.90 in1012.5 mb - 0.00 in0.0 mm 0.01 in0.3 mm
02:30 PM 73.9°F23.3°C 60.9°F16.1°C 64% 10.4 mph SSE16.7 kmh SSE 16.1 mph25.9 kmh 29.89 in1012.2 mb - 0.00 in0.0 mm 0.01 in0.3 mm
02:40 PM 73.2°F22.9°C 61.2°F16.2°C 66% 9.2 mph SSE14.8 kmh SSE 11.5 mph18.5 kmh 29.90 in1012.5 mb - 0.00 in0.0 mm 0.01 in0.3 mm
02:50 PM 72.8°F22.7°C 61.6°F16.4°C 68% 5.8 mph S9.3 kmh S 13.8 mph22.2 kmh 29.90 in1012.5 mb - 0.00 in0.0 mm 0.01 in0.3 mm
03:00 PM 72.3°F22.4°C 62.0°F16.7°C 70% 6.9 mph SE11.1 kmh SE 11.5 mph18.5 kmh 29.89 in1012.2 mb - 0.00 in0.0 mm 0.01 in0.3 mm
03:10 PM 73.0°F22.8°C 61.8°F16.6°C 68% 6.9 mph S11.1 kmh S 15.0 mph24.1 kmh 29.89 in1012.2 mb - 0.00 in0.0 mm 0.01 in0.3 mm
03:20 PM 73.0°F22.8°C 61.8°F16.6°C 68% 5.8 mph SE9.3 kmh SE 9.2 mph14.8 kmh 29.89 in1012.2 mb - 0.00 in0.0 mm 0.01 in0.3 mm
03:30 PM 71.9°F22.2°C 62.0°F16.7°C 71% 12.7 mph S20.4 kmh S 18.4 mph29.6 kmh 29.89 in1012.2 mb - 0.00 in0.0 mm 0.01 in0.3 mm
03:40 PM 71.3°F21.8°C 62.1°F16.7°C 73% 8.1 mph SSE13.0 kmh SSE 11.5 mph18.5 kmh 29.90 in1012.5 mb - 0.00 in0.0 mm 0.01 in0.3 mm
03:50 PM 70.8°F21.6°C 62.1°F16.7°C 74% 6.9 mph S11.1 kmh S 9.2 mph14.8 kmh 29.90 in1012.5 mb - 0.00 in0.0 mm 0.01 in0.3 mm
04:00 PM 70.7°F21.5°C 62.0°F16.7°C 74% 8.1 mph SSE13.0 kmh SSE 8.1 mph13.0 kmh 29.89 in1012.2 mb - 0.00 in0.0 mm 0.01 in0.3 mm
04:10 PM 70.4°F21.3°C 62.1°F16.7°C 75% 8.1 mph SW13.0 kmh SW 15.0 mph24.1 kmh 29.89 in1012.2 mb - 0.00 in0.0 mm 0.01 in0.3 mm
04:20 PM 69.9°F21.1°C 62.0°F16.7°C 76% 9.2 mph SSW14.8 kmh SSW 18.4 mph29.6 kmh 29.90 in1012.5 mb - 0.00 in0.0 mm 0.01 in0.3 mm
04:30 PM 69.8°F21.0°C 61.9°F16.6°C 76% 6.9 mph S11.1 kmh S 8.1 mph13.0 kmh 29.90 in1012.5 mb - 0.00 in0.0 mm 0.01 in0.3 mm
04:40 PM 69.7°F20.9°C 62.5°F16.9°C 78% 2.3 mph SE3.7 kmh SE 5.8 mph9.3 kmh 29.90 in1012.5 mb - 0.00 in0.0 mm 0.01 in0.3 mm
04:50 PM 69.3°F20.7°C 62.1°F16.7°C 78% 5.8 mph S9.3 kmh S 10.4 mph16.7 kmh 29.89 in1012.2 mb - 0.00 in0.0 mm 0.01 in0.3 mm
05:00 PM 69.0°F20.6°C 62.2°F16.8°C 79% 4.6 mph SSE7.4 kmh SSE 6.9 mph11.1 kmh 29.90 in1012.5 mb - 0.00 in0.0 mm 0.01 in0.3 mm
05:10 PM 68.7°F20.4°C 62.2°F16.8°C 80% 3.5 mph SE5.6 kmh SE 10.4 mph16.7 kmh 29.90 in1012.5 mb - 0.00 in0.0 mm 0.01 in0.3 mm
05:20 PM 68.3°F20.2°C 62.2°F16.8°C 81% 5.8 mph SE9.3 kmh SE 8.1 mph13.0 kmh 29.88 in1011.9 mb - 0.00 in0.0 mm 0.01 in0.3 mm
05:30 PM 68.1°F20.1°C 62.4°F16.9°C 82% 5.8 mph SW9.3 kmh SW 16.1 mph25.9 kmh 29.89 in1012.2 mb - 0.00 in0.0 mm 0.01 in0.3 mm
05:40 PM 67.9°F19.9°C 62.9°F17.2°C 84% 3.5 mph SW5.6 kmh SW 6.9 mph11.1 kmh 29.89 in1012.2 mb - 0.00 in0.0 mm 0.01 in0.3 mm
05:50 PM 67.9°F19.9°C 62.9°F17.2°C 84% 4.6 mph SW7.4 kmh SW 15.0 mph24.1 kmh 29.89 in1012.2 mb - 0.00 in0.0 mm 0.01 in0.3 mm
06:00 PM 67.9°F19.9°C 63.2°F17.3°C 85% 5.8 mph SSE9.3 kmh SSE 11.5 mph18.5 kmh 29.89 in1012.2 mb - 0.00 in0.0 mm 0.01 in0.3 mm
06:10 PM 67.9°F19.9°C 63.6°F17.6°C 86% 5.8 mph SSW9.3 kmh SSW 13.8 mph22.2 kmh 29.89 in1012.2 mb - 0.00 in0.0 mm 0.01 in0.3 mm
06:20 PM 67.8°F19.9°C 63.5°F17.5°C 86% 3.5 mph S5.6 kmh S 8.1 mph13.0 kmh 29.90 in1012.5 mb - 0.00 in0.0 mm 0.01 in0.3 mm
06:30 PM 67.6°F19.8°C 63.6°F17.6°C 87% 2.3 mph SE3.7 kmh SE 3.5 mph5.6 kmh 29.90 in1012.5 mb - 0.00 in0.0 mm 0.01 in0.3 mm
06:40 PM 67.3°F19.6°C 63.9°F17.7°C 89% 5.8 mph WSW9.3 kmh WSW 9.2 mph14.8 kmh 29.90 in1012.5 mb - 0.00 in0.0 mm 0.01 in0.3 mm
06:50 PM 66.9°F19.4°C 64.2°F17.9°C 91% 3.5 mph SE5.6 kmh SE 5.8 mph9.3 kmh 29.91 in1012.9 mb - 0.00 in0.0 mm 0.01 in0.3 mm
07:00 PM 66.6°F19.2°C 64.2°F17.9°C 92% 4.6 mph SW7.4 kmh SW 10.4 mph16.7 kmh 29.91 in1012.9 mb - 0.00 in0.0 mm 0.01 in0.3 mm
07:10 PM 66.4°F19.1°C 64.3°F17.9°C 93% 3.5 mph SSE5.6 kmh SSE 8.1 mph13.0 kmh 29.91 in1012.9 mb - 0.00 in0.0 mm 0.01 in0.3 mm
07:20 PM 66.1°F18.9°C 64.3°F17.9°C 94% 4.6 mph SE7.4 kmh SE 8.1 mph13.0 kmh 29.91 in1012.9 mb - 0.00 in0.0 mm 0.01 in0.3 mm
07:30 PM 65.9°F18.8°C 64.1°F17.8°C 94% 5.8 mph S9.3 kmh S 9.2 mph14.8 kmh 29.92 in1013.2 mb - 0.00 in0.0 mm 0.01 in0.3 mm
07:40 PM 65.6°F18.7°C 64.4°F18.0°C 96% 2.3 mph SSE3.7 kmh SSE 5.8 mph9.3 kmh 29.92 in1013.2 mb - 0.00 in0.0 mm 0.01 in0.3 mm
07:50 PM 65.2°F18.4°C 64.6°F18.1°C 98% 3.5 mph SSE5.6 kmh SSE 6.9 mph11.1 kmh 29.92 in1013.2 mb - 0.00 in0.0 mm 0.01 in0.3 mm
08:00 PM 65.1°F18.4°C 64.5°F18.1°C 98% 4.6 mph SSW7.4 kmh SSW 8.1 mph13.0 kmh 29.92 in1013.2 mb - 0.00 in0.0 mm 0.01 in0.3 mm
08:10 PM 64.9°F18.3°C 64.3°F17.9°C 98% 3.5 mph SSE5.6 kmh SSE 2.3 mph3.7 kmh 29.92 in1013.2 mb - 0.00 in0.0 mm 0.01 in0.3 mm
08:20 PM 64.7°F18.2°C 64.1°F17.8°C 98% 2.3 mph S3.7 kmh S 2.3 mph3.7 kmh 29.92 in1013.2 mb - 0.00 in0.0 mm 0.01 in0.3 mm
08:30 PM 64.8°F18.2°C 64.2°F17.9°C 98% 3.5 mph SSW5.6 kmh SSW 2.3 mph3.7 kmh 29.92 in1013.2 mb - 0.00 in0.0 mm 0.01 in0.3 mm
08:40 PM 64.9°F18.3°C 64.3°F17.9°C 98% 4.6 mph SSE7.4 kmh SSE 6.9 mph11.1 kmh 29.92 in1013.2 mb - 0.00 in0.0 mm 0.01 in0.3 mm
08:50 PM 65.1°F18.4°C 64.5°F18.1°C 98% 2.3 mph SE3.7 kmh SE 8.1 mph13.0 kmh 29.92 in1013.2 mb - 0.00 in0.0 mm 0.01 in0.3 mm
09:00 PM 65.5°F18.6°C 64.9°F18.3°C 98% 5.8 mph SSW9.3 kmh SSW 6.9 mph11.1 kmh 29.91 in1012.9 mb - 0.00 in0.0 mm 0.01 in0.3 mm
09:10 PM 65.7°F18.7°C 65.1°F18.4°C 98% 8.1 mph SSW13.0 kmh SSW 11.5 mph18.5 kmh 29.91 in1012.9 mb - 0.00 in0.0 mm 0.01 in0.3 mm
09:20 PM 65.9°F18.8°C 65.3°F18.5°C 98% 6.9 mph SSE11.1 kmh SSE 9.2 mph14.8 kmh 29.91 in1012.9 mb - 0.00 in0.0 mm 0.01 in0.3 mm
09:30 PM 66.1°F18.9°C 65.8°F18.8°C 99% 5.8 mph S9.3 kmh S 8.1 mph13.0 kmh 29.90 in1012.5 mb - 0.00 in0.0 mm 0.01 in0.3 mm
09:40 PM 65.9°F18.8°C 65.3°F18.5°C 98% 5.8 mph S9.3 kmh S 5.8 mph9.3 kmh 29.90 in1012.5 mb - 0.00 in0.0 mm 0.01 in0.3 mm
09:50 PM 65.9°F18.8°C 65.3°F18.5°C 98% 4.6 mph SSE7.4 kmh SSE 5.8 mph9.3 kmh 29.90 in1012.5 mb - 0.00 in0.0 mm 0.01 in0.3 mm
10:00 PM 65.7°F18.7°C 65.1°F18.4°C 98% 4.6 mph SSE7.4 kmh SSE 5.8 mph9.3 kmh 29.90 in1012.5 mb - 0.00 in0.0 mm 0.01 in0.3 mm
10:10 PM 65.7°F18.7°C 65.1°F18.4°C 98% 3.5 mph SE5.6 kmh SE 3.5 mph5.6 kmh 29.89 in1012.2 mb - 0.00 in0.0 mm 0.01 in0.3 mm
10:20 PM 65.8°F18.8°C 65.2°F18.4°C 98% 3.5 mph SW5.6 kmh SW 8.1 mph13.0 kmh 29.89 in1012.2 mb - 0.01 in0.3 mm 0.02 in0.5 mm
10:30 PM 65.9°F18.8°C 65.3°F18.5°C 98% 3.5 mph S5.6 kmh S 10.4 mph16.7 kmh 29.89 in1012.2 mb - 0.01 in0.3 mm 0.02 in0.5 mm
10:40 PM 65.9°F18.8°C 65.3°F18.5°C 98% 5.8 mph S9.3 kmh S 8.1 mph13.0 kmh 29.88 in1011.9 mb - 0.01 in0.3 mm 0.02 in0.5 mm
10:50 PM 66.2°F19.0°C 65.9°F18.8°C 99% 5.8 mph SSW9.3 kmh SSW 11.5 mph18.5 kmh 29.88 in1011.9 mb - 0.01 in0.3 mm 0.02 in0.5 mm
11:00 PM 66.2°F19.0°C 65.9°F18.8°C 99% 4.6 mph S7.4 kmh S 5.8 mph9.3 kmh 29.88 in1011.9 mb - 0.02 in0.5 mm 0.12 in3.0 mm
11:10 PM 65.7°F18.7°C 65.1°F18.4°C 98% 4.6 mph S7.4 kmh S 8.1 mph13.0 kmh 29.88 in1011.9 mb - 0.08 in2.0 mm 0.06 in1.5 mm
11:20 PM 65.3°F18.5°C 64.7°F18.2°C 98% 3.5 mph E5.6 kmh E 2.3 mph3.7 kmh 29.88 in1011.9 mb - 0.09 in2.3 mm 0.08 in2.0 mm
11:30 PM 64.9°F18.3°C 64.3°F17.9°C 98% 4.6 mph SE7.4 kmh SE 5.8 mph9.3 kmh 29.88 in1011.9 mb - 0.09 in2.3 mm 0.08 in2.0 mm
11:40 PM 64.9°F18.3°C 64.3°F17.9°C 98% 3.5 mph S5.6 kmh S 11.5 mph18.5 kmh 29.88 in1011.9 mb - 0.09 in2.3 mm 0.08 in2.0 mm
11:50 PM 65.0°F18.3°C 64.4°F18.0°C 98% 5.8 mph SSE9.3 kmh SSE 15.0 mph24.1 kmh 29.87 in1011.5 mb - 0.09 in2.3 mm 0.08 in2.0 mm